createdAt,value
2018-02-09T00:00:11.281Z,64.20
2018-02-09T00:02:39.160Z,66.83
2018-02-09T00:05:06.692Z,61.37
2018-02-09T00:07:34.249Z,66.10
2018-02-09T00:10:01.823Z,76.27
2018-02-09T00:12:29.343Z,67.20
2018-02-09T00:14:56.880Z,67.90
2018-02-09T00:17:24.538Z,63.77
2018-02-09T00:19:52.391Z,66.07
2018-02-09T00:22:19.959Z,67.23
2018-02-09T00:24:47.508Z,61.47
2018-02-09T00:27:15.094Z,75.37
2018-02-09T00:29:43.043Z,65.33
2018-02-09T00:32:10.569Z,68.97
2018-02-09T00:34:38.372Z,72.83
2018-02-09T00:37:05.921Z,76.83
2018-02-09T00:39:33.482Z,61.00
2018-02-09T00:42:01.062Z,64.87
2018-02-09T00:44:28.920Z,65.17
2018-02-09T00:46:56.500Z,64.37
2018-02-09T00:49:24.032Z,71.93
2018-02-09T00:51:51.573Z,73.57
2018-02-09T00:54:19.150Z,63.30
2018-02-09T00:56:46.766Z,70.20
2018-02-09T00:59:14.314Z,59.10
2018-02-09T01:01:42.260Z,68.20
2018-02-09T01:04:09.778Z,61.47
2018-02-09T01:06:37.338Z,69.53
2018-02-09T01:09:04.902Z,63.30
2018-02-09T01:11:32.455Z,55.97
2018-02-09T01:14:00.266Z,63.47
2018-02-09T01:16:27.844Z,61.27
2018-02-09T01:18:55.410Z,59.53
2018-02-09T01:21:22.940Z,68.50
2018-02-09T01:23:50.517Z,65.13
2018-02-09T01:26:18.079Z,58.30
2018-02-09T01:28:45.635Z,65.87
2018-02-09T01:31:13.192Z,67.30
2018-02-09T01:33:40.739Z,59.13
2018-02-09T01:36:08.350Z,61.27
2018-02-09T01:38:35.901Z,67.17
2018-02-09T01:41:03.498Z,71.77
2018-02-09T01:43:31.034Z,64.43
2018-02-09T01:45:58.602Z,62.83
2018-02-09T01:48:26.176Z,67.87
2018-02-09T01:50:53.774Z,64.83
2018-02-09T01:53:21.302Z,65.23
2018-02-09T01:55:48.862Z,79.80
2018-02-09T01:58:16.438Z,77.03
2018-02-09T02:00:43.978Z,71.73
2018-02-09T02:03:11.808Z,71.03
2018-02-09T02:05:39.369Z,76.83
2018-02-09T02:08:06.894Z,75.87
2018-02-09T02:10:34.453Z,72.33
2018-02-09T02:13:02.041Z,80.60
2018-02-09T02:15:29.598Z,75.67
2018-02-09T02:17:57.165Z,70.17
2018-02-09T02:20:24.705Z,67.70
2018-02-09T02:22:52.239Z,78.10
2018-02-09T02:25:19.845Z,67.53
2018-02-09T02:27:47.394Z,74.27
2018-02-09T02:30:15.267Z,74.87
2018-02-09T02:32:42.849Z,70.03
2018-02-09T02:35:10.417Z,75.17
2018-02-09T02:37:37.975Z,65.70
2018-02-09T02:40:05.541Z,79.47
2018-02-09T02:42:35.383Z,79.67
2018-02-09T02:45:02.922Z,72.07
2018-02-09T02:47:30.462Z,73.47
2018-02-09T02:49:58.036Z,70.10
2018-02-09T02:52:25.558Z,82.30
2018-02-09T02:54:53.092Z,70.07
2018-02-09T02:57:20.638Z,68.67
2018-02-09T02:59:48.442Z,83.27
2018-02-09T03:02:16.091Z,81.63
2018-02-09T03:04:43.873Z,71.47
2018-02-09T03:07:11.429Z,78.07
2018-02-09T03:09:38.977Z,82.57
2018-02-09T03:12:06.526Z,73.53
2018-02-09T03:14:34.421Z,78.90
2018-02-09T03:17:01.970Z,74.03
2018-02-09T03:19:29.510Z,72.00
2018-02-09T03:21:57.313Z,69.60
2018-02-09T03:24:24.848Z,80.60
2018-02-09T03:26:52.458Z,72.83
2018-02-09T03:29:20.306Z,75.23
2018-02-09T03:31:48.167Z,78.73
2018-02-09T03:34:15.962Z,75.33
2018-02-09T03:36:43.523Z,84.90
2018-02-09T03:39:11.116Z,78.63
2018-02-09T03:41:38.684Z,82.27
2018-02-09T03:44:06.237Z,81.20
2018-02-09T03:46:33.804Z,87.37
2018-02-09T03:49:02.846Z,83.37
2018-02-09T03:51:30.445Z,70.63
2018-02-09T03:53:58.008Z,80.57
2018-02-09T03:56:25.534Z,80.90
2018-02-09T03:58:53.395Z,85.10
2018-02-09T04:01:20.988Z,75.10
2018-02-09T04:03:48.565Z,96.77
2018-02-09T04:06:16.124Z,78.20
2018-02-09T04:08:43.701Z,85.57
2018-02-09T04:11:11.231Z,74.70
2018-02-09T04:13:38.862Z,79.43
2018-02-09T04:16:06.440Z,78.63
2018-02-09T04:18:34.202Z,81.93
2018-02-09T04:21:01.781Z,90.10
2018-02-09T04:23:29.330Z,86.03
2018-02-09T04:25:56.890Z,80.47
2018-02-09T04:28:24.443Z,80.13
2018-02-09T04:30:52.306Z,92.17
2018-02-09T04:33:19.869Z,82.63
2018-02-09T04:35:47.431Z,90.93
2018-02-09T04:38:14.969Z,79.97
2018-02-09T04:40:42.860Z,85.50
2018-02-09T04:43:10.386Z,88.17
2018-02-09T04:45:37.915Z,81.20
2018-02-09T04:48:05.502Z,81.43
2018-02-09T04:50:33.054Z,79.70
2018-02-09T04:53:00.651Z,87.10
2018-02-09T04:55:28.221Z,97.47
2018-02-09T04:57:55.795Z,89.33
2018-02-09T05:00:23.331Z,84.83
2018-02-09T05:02:50.930Z,91.57
2018-02-09T05:05:18.490Z,85.53
2018-02-09T05:07:46.076Z,98.70
2018-02-09T05:10:13.671Z,90.57
2018-02-09T05:12:41.227Z,89.90
2018-02-09T05:15:08.784Z,92.43
2018-02-09T05:17:36.346Z,92.87
2018-02-09T05:20:03.905Z,106.70
2018-02-09T05:22:31.514Z,95.37
2018-02-09T05:24:59.257Z,92.67
2018-02-09T05:27:26.808Z,90.73
2018-02-09T05:29:54.350Z,88.10
2018-02-09T05:32:21.913Z,94.40
2018-02-09T05:34:49.509Z,98.50
2018-02-09T05:37:17.095Z,108.83
2018-02-09T05:39:44.649Z,94.97
2018-02-09T05:42:12.579Z,96.53
2018-02-09T05:44:40.166Z,98.23
2018-02-09T05:47:07.751Z,93.87
2018-02-09T05:49:35.331Z,95.43
2018-02-09T05:52:02.926Z,108.00
2018-02-09T05:54:30.505Z,98.17
2018-02-09T05:56:58.091Z,102.00
2018-02-09T05:59:25.650Z,98.03
2018-02-09T06:01:53.171Z,90.20
2018-02-09T06:04:20.733Z,101.43
2018-02-09T06:06:48.278Z,110.33
2018-02-09T06:09:15.876Z,96.33
2018-02-09T06:11:43.478Z,87.73
2018-02-09T06:14:11.029Z,102.53
2018-02-09T06:16:38.613Z,108.20
2018-02-09T06:19:06.180Z,107.70
2018-02-09T06:21:34.066Z,116.10
2018-02-09T06:24:01.626Z,115.00
2018-02-09T06:26:29.487Z,107.50
2018-02-09T06:28:57.052Z,108.57
2018-02-09T06:31:24.597Z,110.40
2018-02-09T06:33:52.170Z,114.90
2018-02-09T06:36:19.709Z,110.80
2018-02-09T06:38:47.270Z,96.30
2018-02-09T06:41:14.817Z,109.10
2018-02-09T06:43:42.836Z,102.50
2018-02-09T06:46:10.710Z,108.63
2018-02-09T06:48:38.310Z,108.07
2018-02-09T06:51:05.910Z,110.43
2018-02-09T06:53:33.437Z,101.27
2018-02-09T06:56:01.002Z,121.13
2018-02-09T06:58:28.542Z,111.40
2018-02-09T07:00:56.107Z,120.10
2018-02-09T07:03:23.642Z,114.40
2018-02-09T07:05:51.251Z,103.90
2018-02-09T07:08:18.833Z,117.07
2018-02-09T07:10:46.772Z,109.43
2018-02-09T07:13:14.473Z,99.40
2018-02-09T07:15:42.225Z,121.50
2018-02-09T07:18:09.769Z,119.03
2018-02-09T07:20:37.781Z,115.07
2018-02-09T07:23:05.479Z,113.17
2018-02-09T07:25:33.112Z,129.47
2018-02-09T07:28:00.689Z,105.80
2018-02-09T07:30:28.255Z,113.07
2018-02-09T07:32:55.811Z,118.03
2018-02-09T07:35:23.446Z,101.93
2018-02-09T07:37:51.037Z,111.43
2018-02-09T07:40:18.983Z,136.40
2018-02-09T07:42:46.655Z,111.70
2018-02-09T07:45:14.232Z,112.50
2018-02-09T07:47:41.865Z,103.77
2018-02-09T07:50:09.453Z,103.97
2018-02-09T07:52:36.996Z,105.87
2018-02-09T07:55:04.577Z,108.93
2018-02-09T07:57:32.711Z,129.70
2018-02-09T08:00:00.547Z,118.70
2018-02-09T08:02:28.146Z,100.10
2018-02-09T08:04:55.699Z,98.97
2018-02-09T08:07:23.301Z,114.60
2018-02-09T08:09:50.910Z,99.40
2018-02-09T08:12:18.542Z,91.50
2018-02-09T08:14:46.134Z,105.70
2018-02-09T08:17:13.694Z,97.73
2018-02-09T08:19:41.279Z,108.90
2018-02-09T08:22:08.904Z,121.77
2018-02-09T08:24:36.704Z,104.60
2018-02-09T08:27:04.343Z,95.97
2018-02-09T08:29:31.967Z,88.80
2018-02-09T08:31:59.491Z,98.73
2018-02-09T08:34:27.099Z,93.40
2018-02-09T08:36:54.699Z,89.67
2018-02-09T08:39:22.262Z,95.17
2018-02-09T08:41:49.874Z,87.43
2018-02-09T08:44:17.410Z,98.83
2018-02-09T08:46:45.230Z,88.00
2018-02-09T08:49:13.292Z,87.60
2018-02-09T08:51:40.970Z,101.30
2018-02-09T08:54:08.593Z,92.33
2018-02-09T08:56:36.426Z,94.40
2018-02-09T08:59:03.976Z,88.77
2018-02-09T09:01:31.643Z,82.77
2018-02-09T09:03:59.231Z,94.40
2018-02-09T09:06:26.868Z,88.27
2018-02-09T09:08:54.621Z,99.03
2018-02-09T09:11:22.253Z,104.50
2018-02-09T09:13:49.815Z,95.80
2018-02-09T09:16:17.373Z,111.00
2018-02-09T09:18:45.104Z,99.47
2018-02-09T09:21:12.752Z,105.17
2018-02-09T09:23:40.566Z,109.23
2018-02-09T09:26:08.191Z,110.57
2018-02-09T09:28:35.798Z,104.60
2018-02-09T09:31:03.366Z,116.73
2018-02-09T09:33:30.928Z,115.03
2018-02-09T09:35:58.534Z,105.60
2018-02-09T09:38:26.121Z,113.57
2018-02-09T09:40:53.752Z,97.73
2018-02-09T09:43:21.359Z,115.07
2018-02-09T09:45:48.976Z,102.37
2018-02-09T09:48:16.506Z,119.80
2018-02-09T09:50:44.055Z,102.63
2018-02-09T09:53:11.815Z,117.97
2018-02-09T09:55:39.342Z,111.23
2018-02-09T09:58:06.921Z,106.43
2018-02-09T10:00:34.487Z,111.70
2018-02-09T10:03:02.329Z,108.10
2018-02-09T10:05:30.173Z,119.20
2018-02-09T10:07:57.740Z,101.83
2018-02-09T10:10:25.316Z,101.37
2018-02-09T10:12:52.904Z,114.70
2018-02-09T10:15:20.447Z,109.10
2018-02-09T10:17:47.989Z,103.40
2018-02-09T10:20:15.627Z,105.60
2018-02-09T10:22:43.210Z,101.03
2018-02-09T10:25:10.807Z,109.80
2018-02-09T10:27:38.407Z,105.30
2018-02-09T10:30:05.984Z,85.13
2018-02-09T10:32:33.654Z,90.53
2018-02-09T10:35:02.266Z,86.83
2018-02-09T10:37:29.864Z,97.73
2018-02-09T10:39:57.450Z,95.37
2018-02-09T10:42:25.046Z,84.60
2018-02-09T10:44:52.691Z,75.13
2018-02-09T10:47:20.236Z,87.70
2018-02-09T10:49:48.167Z,110.93
2018-02-09T10:52:17.863Z,96.37
2018-02-09T10:54:45.918Z,92.80
2018-02-09T10:57:13.572Z,86.40
2018-02-09T10:59:41.125Z,92.67
2018-02-09T11:02:08.713Z,94.90
2018-02-09T11:04:36.251Z,101.77
2018-02-09T11:07:03.800Z,89.97
2018-02-09T11:09:31.347Z,84.57
2018-02-09T11:15:02.922Z,80.77
2018-02-09T11:17:30.516Z,77.73
2018-02-09T11:19:58.078Z,74.77
2018-02-09T11:22:25.642Z,80.77
2018-02-09T11:24:53.198Z,86.17
2018-02-09T11:27:21.041Z,73.87
2018-02-09T11:29:48.688Z,71.90
2018-02-09T11:32:16.268Z,86.73
2018-02-09T11:34:43.806Z,81.13
2018-02-09T11:37:11.383Z,77.37
2018-02-09T11:39:38.971Z,76.40
2018-02-09T11:42:06.546Z,77.27
2018-02-09T11:44:34.086Z,73.13
2018-02-09T11:47:01.718Z,66.93
2018-02-09T11:49:29.290Z,76.57
2018-02-09T11:51:56.881Z,74.73
2018-02-09T11:54:24.441Z,85.23
2018-02-09T11:56:51.981Z,71.20
2018-02-09T11:59:19.554Z,74.40
2018-02-09T12:01:47.100Z,72.93
2018-02-09T12:04:14.662Z,74.27
2018-02-09T12:06:42.225Z,71.63
2018-02-09T12:09:09.789Z,77.77
2018-02-09T12:11:37.346Z,86.77
2018-02-09T12:14:04.922Z,78.17
2018-02-09T12:16:32.492Z,71.70
2018-02-09T12:19:00.065Z,77.27
2018-02-09T12:21:27.892Z,80.70
2018-02-09T12:23:55.488Z,81.40
2018-02-09T12:26:23.023Z,85.63
2018-02-09T12:28:50.596Z,78.93
2018-02-09T12:31:18.461Z,84.63
2018-02-09T12:33:46.146Z,80.93
2018-02-09T12:36:13.685Z,85.80
2018-02-09T12:38:41.258Z,81.10
2018-02-09T12:41:09.101Z,90.97
2018-02-09T12:43:36.650Z,83.23
2018-02-09T12:46:04.428Z,80.97
2018-02-09T12:48:32.001Z,78.20
2018-02-09T12:50:59.532Z,83.17
2018-02-09T12:53:27.082Z,78.17
2018-02-09T12:55:54.675Z,82.50
2018-02-09T12:58:22.218Z,84.93
2018-02-09T13:00:50.282Z,91.87
2018-02-09T13:03:17.913Z,70.20
2018-02-09T13:05:45.670Z,87.93
2018-02-09T13:08:13.614Z,84.47
2018-02-09T13:10:41.263Z,110.50
2018-02-09T13:13:11.667Z,81.43
2018-02-09T13:15:39.200Z,81.20
2018-02-09T13:18:07.018Z,82.43
2018-02-09T13:20:34.544Z,85.80
2018-02-09T13:23:14.226Z,88.27
2018-02-09T13:25:41.743Z,85.70
2018-02-09T13:28:09.302Z,89.53
2018-02-09T13:30:37.111Z,73.27
2018-02-09T13:33:16.471Z,85.10
2018-02-09T13:35:44.047Z,85.17
2018-02-09T13:38:11.586Z,93.67
2018-02-09T13:40:39.154Z,74.83
2018-02-09T13:43:06.764Z,81.77
2018-02-09T13:45:34.319Z,87.97
2018-02-09T13:48:01.850Z,100.23
2018-02-09T13:50:29.404Z,75.10
2018-02-09T13:52:56.928Z,75.07
2018-02-09T13:55:24.469Z,79.23
2018-02-09T13:57:51.998Z,75.80
2018-02-09T14:00:19.930Z,75.10
2018-02-09T14:02:47.475Z,86.23
2018-02-09T14:05:15.023Z,84.97
2018-02-09T14:07:42.904Z,81.50
2018-02-09T14:10:10.440Z,84.40
2018-02-09T14:12:37.983Z,78.73
2018-02-09T14:15:05.516Z,92.20
2018-02-09T14:17:33.037Z,80.13
2018-02-09T14:20:00.608Z,74.60
2018-02-09T14:22:28.142Z,77.67
2018-02-09T14:24:55.678Z,80.50
2018-02-09T14:27:23.970Z,77.73
2018-02-09T14:29:51.540Z,76.10
2018-02-09T14:32:19.095Z,75.33
2018-02-09T14:34:46.642Z,82.23
2018-02-09T14:37:14.213Z,82.40
2018-02-09T14:39:41.790Z,74.27
2018-02-09T14:42:09.318Z,72.17
2018-02-09T14:44:36.867Z,78.50
2018-02-09T14:47:04.453Z,77.50
2018-02-09T14:49:32.371Z,79.70
2018-02-09T14:51:59.900Z,89.70
2018-02-09T14:54:27.787Z,82.17
2018-02-09T14:56:55.334Z,77.60
2018-02-09T14:59:23.117Z,78.43
2018-02-09T15:01:50.706Z,76.53
2018-02-09T15:04:18.544Z,96.03
2018-02-09T15:06:46.135Z,88.10
2018-02-09T15:09:13.755Z,78.70
2018-02-09T15:11:41.295Z,85.87
2018-02-09T15:14:08.824Z,84.50
2018-02-09T15:16:36.654Z,91.20
2018-02-09T15:19:04.198Z,83.70
2018-02-09T15:21:31.757Z,83.77
2018-02-09T15:23:59.298Z,89.20
2018-02-09T15:26:26.862Z,85.77
2018-02-09T15:28:54.471Z,88.13
2018-02-09T15:31:22.333Z,91.90
2018-02-09T15:33:49.923Z,94.77
2018-02-09T15:36:17.513Z,93.27
2018-02-09T15:38:45.087Z,87.67
2018-02-09T15:41:12.712Z,79.00
2018-02-09T15:43:40.249Z,90.30
2018-02-09T15:46:07.793Z,95.50
2018-02-09T15:48:35.403Z,85.43
2018-02-09T15:51:02.957Z,89.30
2018-02-09T15:53:30.508Z,103.53
2018-02-09T15:55:58.059Z,102.00
2018-02-09T15:58:25.606Z,99.23
2018-02-09T16:00:53.469Z,88.90
2018-02-09T16:03:21.058Z,99.80
2018-02-09T16:05:48.892Z,106.67
2018-02-09T16:08:16.446Z,95.70
2018-02-09T16:10:43.975Z,94.13
2018-02-09T16:13:11.520Z,101.63
2018-02-09T16:15:39.076Z,124.90
2018-02-09T16:18:06.674Z,117.73
2018-02-09T16:20:34.242Z,101.73
2018-02-09T16:23:01.766Z,110.33
2018-02-09T16:25:29.300Z,98.20
2018-02-09T16:27:56.859Z,96.20
2018-02-09T16:30:24.715Z,102.90
2018-02-09T16:32:52.303Z,106.87
2018-02-09T16:35:20.134Z,100.77
2018-02-09T16:37:47.905Z,112.10
2018-02-09T16:40:15.492Z,108.50
2018-02-09T16:42:43.330Z,125.03
2018-02-09T16:45:10.881Z,118.90
2018-02-09T16:47:38.477Z,102.80
2018-02-09T16:50:06.025Z,95.50
2018-02-09T16:52:33.587Z,99.40
2018-02-09T16:55:01.161Z,102.00
2018-02-09T16:57:28.700Z,100.53
2018-02-09T16:59:56.538Z,98.73
2018-02-09T17:02:24.366Z,107.90
2018-02-09T17:04:52.069Z,105.43
2018-02-09T17:07:19.964Z,112.07
2018-02-09T17:09:48.373Z,109.27
2018-02-09T17:12:16.353Z,103.27
2018-02-09T17:14:43.910Z,107.83
2018-02-09T17:17:12.201Z,102.87
2018-02-09T17:19:40.598Z,103.70
2018-02-09T17:22:08.195Z,111.43
2018-02-09T17:24:35.770Z,111.53
2018-02-09T17:27:03.358Z,114.97
2018-02-09T17:29:30.878Z,106.47
2018-02-09T17:31:58.440Z,144.90
2018-02-09T17:34:25.983Z,136.37
2018-02-09T17:36:53.571Z,112.27
2018-02-09T17:39:21.147Z,119.57
2018-02-09T17:41:48.809Z,139.63
2018-02-09T17:44:16.344Z,111.73
2018-02-09T17:46:43.884Z,105.13
2018-02-09T17:49:11.557Z,109.53
2018-02-09T17:51:39.126Z,111.40
2018-02-09T17:54:06.666Z,118.43
2018-02-09T17:56:34.224Z,118.63
2018-02-09T17:59:01.786Z,116.00
2018-02-09T18:01:29.323Z,106.90
2018-02-09T18:03:56.884Z,106.13
2018-02-09T18:06:24.415Z,118.43
2018-02-09T18:08:52.054Z,122.53
2018-02-09T18:11:19.588Z,110.07
2018-02-09T18:13:47.125Z,104.73
2018-02-09T18:16:14.727Z,118.87
2018-02-09T18:18:42.249Z,114.83
2018-02-09T18:21:10.064Z,123.83
2018-02-09T18:23:37.636Z,108.43
2018-02-09T18:26:05.176Z,101.40
2018-02-09T18:28:32.759Z,130.83
2018-02-09T18:31:00.305Z,111.43
2018-02-09T18:33:27.850Z,115.57
2018-02-09T18:35:55.442Z,104.97
2018-02-09T18:38:23.013Z,116.07
2018-02-09T18:40:50.558Z,100.20
2018-02-09T18:43:18.173Z,114.27
2018-02-09T18:45:45.702Z,118.37
2018-02-09T18:48:13.363Z,127.33
2018-02-09T18:50:40.920Z,123.57
2018-02-09T18:53:08.868Z,111.23
2018-02-09T18:55:36.462Z,111.57
2018-02-09T18:58:04.006Z,109.73
2018-02-09T19:00:31.525Z,120.27
2018-02-09T19:02:59.413Z,116.60
2018-02-09T19:05:26.987Z,122.47
2018-02-09T19:07:54.554Z,102.80
2018-02-09T19:10:22.399Z,113.10
2018-02-09T19:12:50.267Z,117.40
2018-02-09T19:15:17.806Z,126.30
2018-02-09T19:17:45.433Z,114.33
2018-02-09T19:20:13.003Z,115.97
2018-02-09T19:22:40.823Z,128.20
2018-02-09T19:25:08.362Z,126.57
2018-02-09T19:27:36.244Z,111.03
2018-02-09T19:30:03.821Z,127.70
2018-02-09T19:32:31.380Z,120.43
2018-02-09T19:34:58.930Z,133.77
2018-02-09T19:37:26.525Z,126.00
2018-02-09T19:39:54.363Z,127.13
2018-02-09T19:42:21.935Z,116.83
2018-02-09T19:44:49.552Z,117.13
2018-02-09T19:47:17.140Z,104.37
2018-02-09T19:49:44.683Z,115.33
2018-02-09T19:52:12.235Z,121.47
2018-02-09T19:54:39.901Z,118.47
2018-02-09T19:57:07.439Z,120.23
2018-02-09T19:59:35.050Z,127.30
2018-02-09T20:02:02.627Z,122.10
2018-02-09T20:04:30.169Z,114.13
2018-02-09T20:06:57.772Z,126.03
2018-02-09T20:09:25.391Z,110.87
2018-02-09T20:11:52.931Z,109.13
2018-02-09T20:14:20.582Z,124.23
2018-02-09T20:16:48.125Z,123.83
2018-02-09T20:19:15.707Z,111.43
2018-02-09T20:21:43.317Z,130.70
2018-02-09T20:24:10.995Z,116.17
2018-02-09T20:26:38.834Z,109.53
2018-02-09T20:29:06.381Z,118.03
2018-02-09T20:31:33.982Z,109.17
2018-02-09T20:34:01.585Z,122.80
2018-02-09T20:36:29.232Z,112.73
2018-02-09T20:38:56.864Z,116.20
2018-02-09T20:41:24.429Z,105.40
2018-02-09T20:43:51.983Z,117.90
2018-02-09T20:46:19.610Z,112.03
2018-02-09T20:48:47.141Z,120.40
2018-02-09T20:51:14.967Z,134.13
2018-02-09T20:53:42.832Z,120.70
2018-02-09T20:56:10.390Z,112.63
2018-02-09T20:58:38.260Z,115.57
2018-02-09T21:01:05.917Z,104.57
2018-02-09T21:03:33.477Z,116.77
2018-02-09T21:06:01.066Z,111.20
2018-02-09T21:08:28.633Z,115.67
2018-02-09T21:10:56.463Z,120.67
2018-02-09T21:13:24.327Z,100.53
2018-02-09T21:15:51.957Z,110.03
2018-02-09T21:18:19.767Z,122.53
2018-02-09T21:20:47.306Z,133.47
2018-02-09T21:23:14.929Z,130.30
2018-02-09T21:25:42.576Z,121.07
2018-02-09T21:28:10.141Z,109.03
2018-02-09T21:30:38.091Z,118.10
2018-02-09T21:33:05.635Z,111.97
2018-02-09T21:35:33.215Z,120.17
2018-02-09T21:38:00.734Z,112.80
2018-02-09T21:40:28.268Z,124.17
2018-02-09T21:42:55.843Z,120.17
2018-02-09T21:45:23.385Z,148.43
2018-02-09T21:47:51.107Z,124.00
2018-02-09T21:50:18.662Z,129.10
2018-02-09T21:52:46.209Z,119.10
2018-02-09T21:55:13.864Z,123.37
2018-02-09T21:57:41.418Z,128.00
2018-02-09T22:00:08.952Z,114.60
2018-02-09T22:02:36.540Z,121.50
2018-02-09T22:05:04.086Z,120.43
2018-02-09T22:07:31.654Z,130.77
2018-02-09T22:09:59.323Z,117.17
2018-02-09T22:12:26.943Z,131.77
2018-02-09T22:14:54.542Z,102.40
2018-02-09T22:17:22.415Z,124.40
2018-02-09T22:19:49.960Z,126.97
2018-02-09T22:22:17.573Z,132.23
2018-02-09T22:24:45.100Z,119.73
2018-02-09T22:27:12.631Z,125.20
2018-02-09T22:29:40.228Z,120.87
2018-02-09T22:32:07.769Z,139.30
2018-02-09T22:34:35.343Z,133.97
2018-02-09T22:37:02.875Z,117.07
2018-02-09T22:39:30.432Z,138.70
2018-02-09T22:41:58.251Z,135.77
2018-02-09T22:44:25.799Z,129.53
2018-02-09T22:46:53.346Z,121.87
2018-02-09T22:49:20.878Z,125.77
2018-02-09T22:51:48.451Z,124.47
2018-02-09T22:54:16.026Z,138.80
2018-02-09T22:56:43.601Z,135.23
2018-02-09T22:59:11.186Z,122.83
2018-02-09T23:01:38.710Z,121.07
2018-02-09T23:04:06.254Z,129.87
2018-02-09T23:06:33.836Z,123.30
2018-02-09T23:09:01.834Z,127.73
2018-02-09T23:11:29.413Z,121.13
2018-02-09T23:13:56.980Z,121.93
2018-02-09T23:16:24.529Z,134.43
2018-02-09T23:18:52.078Z,127.10
2018-02-09T23:21:19.585Z,113.53
2018-02-09T23:23:47.111Z,130.33
2018-02-09T23:26:14.670Z,126.57
2018-02-09T23:28:42.374Z,145.30
2018-02-09T23:31:09.967Z,129.77
2018-02-09T23:33:37.527Z,126.10
2018-02-09T23:36:05.106Z,129.67
2018-02-09T23:38:32.971Z,132.50
2018-02-09T23:41:00.510Z,137.37
2018-02-09T23:43:28.037Z,131.30
2018-02-09T23:45:55.590Z,126.30
2018-02-09T23:48:23.141Z,137.20
2018-02-09T23:50:50.699Z,125.73
2018-02-09T23:53:18.252Z,129.47
2018-02-09T23:55:45.781Z,124.33
2018-02-09T23:58:13.383Z,135.80
